Time;durP1;ratioP1;P1;durP2;ratioP2;P2;SDS_P1;SDS_P2;PMS_P1;PMS_P2;Temp;Humidity;BMP_temperature;BMP_pressure;BME280_temperature;BME280_humidity;BME280_pressure;Samples;Min_cycle;Max_cycle;Signal;HPM_P1;HPM_P2
2022/09/11 00:01:55;;;;;;;;;;;;;;;17.30;89.02;95115.25;5093476;28;1104;-52
2022/09/11 00:04:21;;;;;;;;;;;;;;;17.06;89.36;95115.81;5094097;28;976;-52
2022/09/11 00:06:48;;;;;;;;;;;;;;;16.95;90.16;95115.34;5093944;28;976;-52
2022/09/11 00:09:14;;;;;;;;;;;;;;;17.02;90.14;95109.16;5093331;28;1072;-51
2022/09/11 00:11:41;;;;;;;;;;;;;;;17.08;89.19;95113.72;5093543;28;1985;-51
2022/09/11 00:14:09;;;;;;;;;;;;;;;16.92;89.68;95104.94;5092433;28;1045;-51
2022/09/11 00:16:36;;;;;;;;;;;;;;;16.87;89.97;95106.59;5093471;28;1084;-52
2022/09/11 00:19:04;;;;;;;;;;;;;;;16.75;90.19;95104.44;5093326;28;1048;-52
2022/09/11 00:21:30;;;;;;;;;;;;;;;16.78;90.54;95105.88;5092003;28;1957;-52
2022/09/11 00:23:56;;;;;;;;;;;;;;;16.83;90.38;95105.28;5093291;28;966;-52
2022/09/11 00:26:23;;;;;;;;;;;;;;;16.90;89.65;95104.31;5093431;28;1014;-52
2022/09/11 00:28:49;;;;;;;;;;;;;;;16.95;89.17;95106.41;5093363;28;1068;-52
2022/09/11 00:31:17;;;;;;;;;;;;;;;16.95;89.15;95109.94;5092946;28;1930;-52
2022/09/11 00:33:43;;;;;;;;;;;;;;;16.90;89.05;95106.16;5093170;28;957;-52
2022/09/11 00:36:14;;;;;;;;;;;;;;;16.91;89.43;95099.75;5093256;28;1076;-51
2022/09/11 00:38:41;;;;;;;;;;;;;;;16.92;89.37;95107.66;5105517;28;1453;-52
2022/09/11 00:41:11;;;;;;;;;;;;;;;16.93;89.58;95103.91;5113548;28;1233;-52
2022/09/11 00:43:50;;;;;;;;;;;;;;;16.86;89.52;95105.72;5113816;28;1000;-51
2022/09/11 00:46:16;;;;;;;;;;;;;;;16.86;89.67;95097.63;5113898;28;1100;-52
2022/09/11 00:48:47;;;;;;;;;;;;;;;16.84;89.96;95093.47;5114006;28;1035;-52
2022/09/11 00:51:13;;;;;;;;;;;;;;;16.77;90.59;95091.56;5114081;28;1906;-52
2022/09/11 00:53:39;;;;;;;;;;;;;;;16.92;89.59;95094.16;5108969;28;1269;-52
2022/09/11 00:56:07;;;;;;;;;;;;;;;16.84;90.28;95097.00;5093588;28;1043;-52
2022/09/11 00:58:34;;;;;;;;;;;;;;;16.73;90.78;95100.25;5093182;28;1017;-52
2022/09/11 01:01:02;;;;;;;;;;;;;;;16.68;90.78;95095.47;5093712;28;1033;-51
2022/09/11 01:03:28;;;;;;;;;;;;;;;16.68;90.81;95102.72;5092428;28;1120;-52
2022/09/11 01:05:55;;;;;;;;;;;;;;;16.72;90.85;95098.59;5093592;28;1039;-52
2022/09/11 01:08:21;;;;;;;;;;;;;;;16.69;90.59;95098.97;5093289;28;1104;-52
2022/09/11 01:11:06;;;;;;;;;;;;;;;16.67;90.39;95092.94;5093401;28;2019;-52
2022/09/11 01:13:38;;;;;;;;;;;;;;;16.76;90.27;95094.44;5093222;28;1949;-52
2022/09/11 01:16:39;;;;;;;;;;;;;;;16.68;90.07;95097.34;5093518;28;1039;-52
2022/09/11 01:19:23;;;;;;;;;;;;;;;16.56;90.77;95099.75;5030809;28;1304;-52
2022/09/11 01:21:51;;;;;;;;;;;;;;;16.52;90.74;95099.34;5088437;28;1078;-52
2022/09/11 01:24:17;;;;;;;;;;;;;;;16.54;90.56;95097.25;5093005;28;1095;-52
2022/09/11 01:26:52;;;;;;;;;;;;;;;16.59;90.80;95093.94;5093214;28;1076;-52
2022/09/11 01:29:21;;;;;;;;;;;;;;;16.42;90.17;95101.53;5093037;28;965;-52
2022/09/11 01:32:00;;;;;;;;;;;;;;;16.15;91.10;95104.06;5093067;28;1906;-51
2022/09/11 01:34:28;;;;;;;;;;;;;;;16.03;92.10;95099.41;5093290;28;983;-52
2022/09/11 01:36:58;;;;;;;;;;;;;;;16.17;92.48;95088.50;5093175;28;1844;-51
2022/09/11 01:39:27;;;;;;;;;;;;;;;16.27;91.90;95100.81;5094940;28;1024;-52
2022/09/11 01:42:00;;;;;;;;;;;;;;;16.18;91.69;95098.28;5097158;28;962;-52
2022/09/11 01:44:28;;;;;;;;;;;;;;;16.09;92.44;95104.88;5097251;28;969;-52
2022/09/11 01:46:54;;;;;;;;;;;;;;;16.11;92.97;95101.97;5097194;28;1032;-52
2022/09/11 01:49:24;;;;;;;;;;;;;;;16.38;91.72;95105.66;5096914;28;965;-52
2022/09/11 01:51:52;;;;;;;;;;;;;;;16.45;91.10;95105.69;5097123;28;2240;-52
2022/09/11 01:54:21;;;;;;;;;;;;;;;16.38;90.99;95109.19;5106468;28;1146;-51
2022/09/11 01:56:54;;;;;;;;;;;;;;;16.21;91.47;95107.84;5117257;28;1037;-52
2022/09/11 01:59:26;;;;;;;;;;;;;;;16.09;91.93;95110.25;5117176;28;1033;-52
2022/09/11 02:01:58;;;;;;;;;;;;;;;16.30;90.75;95114.75;5117340;28;1057;-52
2022/09/11 02:04:28;;;;;;;;;;;;;;;16.37;90.69;95106.69;5098712;28;1020;-52
2022/09/11 02:07:02;;;;;;;;;;;;;;;16.09;91.48;95110.25;5117047;28;1115;-52
2022/09/11 02:09:33;;;;;;;;;;;;;;;16.00;92.49;95108.72;5116727;28;968;-52
2022/09/11 02:12:01;;;;;;;;;;;;;;;16.14;91.37;95104.25;5117186;28;1909;-51
2022/09/11 02:14:35;;;;;;;;;;;;;;;16.30;90.70;95103.13;5116828;28;980;-52
2022/09/11 02:17:23;;;;;;;;;;;;;;;16.28;91.25;95103.31;5116971;28;969;-51
2022/09/11 02:19:50;;;;;;;;;;;;;;;16.33;91.30;95102.72;5116629;28;976;-51
2022/09/11 02:22:16;;;;;;;;;;;;;;;16.27;91.58;95111.63;5116621;28;1850;-51
2022/09/11 02:24:42;;;;;;;;;;;;;;;16.18;91.77;95111.78;5116749;28;968;-51
2022/09/11 02:27:11;;;;;;;;;;;;;;;16.23;92.01;95113.88;5116631;28;1082;-52
2022/09/11 02:29:38;;;;;;;;;;;;;;;16.15;91.73;95108.63;5116478;28;953;-51
2022/09/11 02:32:04;;;;;;;;;;;;;;;16.19;91.91;95108.03;5116481;28;1975;-51
2022/09/11 02:34:32;;;;;;;;;;;;;;;16.15;90.30;95100.53;5116180;28;1025;-52
2022/09/11 02:37:17;;;;;;;;;;;;;;;16.07;90.93;95097.97;5116740;28;964;-51
2022/09/11 02:39:52;;;;;;;;;;;;;;;15.97;91.49;95098.31;5116393;28;1016;-51
2022/09/11 02:42:20;;;;;;;;;;;;;;;15.98;91.44;95100.81;5116373;28;961;-52
2022/09/11 02:45:05;;;;;;;;;;;;;;;15.94;91.11;95101.44;5116168;28;996;-52
2022/09/11 02:47:31;;;;;;;;;;;;;;;15.73;91.49;95105.81;5116372;28;1166;-52
2022/09/11 02:50:06;;;;;;;;;;;;;;;15.69;92.06;95104.50;5115087;28;1051;-52
2022/09/11 02:52:51;;;;;;;;;;;;;;;15.75;92.17;95101.06;5115904;28;1901;-53
2022/09/11 02:55:21;;;;;;;;;;;;;;;15.91;91.05;95107.19;5097496;28;1157;-52
2022/09/11 02:58:08;;;;;;;;;;;;;;;15.80;91.81;95100.47;5095609;28;950;-52
2022/09/11 03:00:34;;;;;;;;;;;;;;;15.78;92.09;95098.00;5095302;28;1903;-52
2022/09/11 03:03:01;;;;;;;;;;;;;;;15.88;91.22;95089.56;5095677;28;1019;-52
2022/09/11 03:05:27;;;;;;;;;;;;;;;15.86;91.78;95083.53;5095171;28;1860;-52
2022/09/11 03:07:53;;;;;;;;;;;;;;;15.84;91.93;95084.75;5095490;28;1036;-52
2022/09/11 03:10:20;;;;;;;;;;;;;;;15.76;91.69;95094.66;5095071;28;1025;-52
2022/09/11 03:12:46;;;;;;;;;;;;;;;15.57;91.85;95093.41;5095532;28;1906;-52
2022/09/11 03:15:12;;;;;;;;;;;;;;;15.49;92.70;95090.84;5095158;28;1954;-52
2022/09/11 03:17:38;;;;;;;;;;;;;;;15.51;92.00;95090.66;5095323;28;1031;-52
2022/09/11 03:20:05;;;;;;;;;;;;;;;15.56;92.27;95096.31;5095108;28;973;-52
2022/09/11 03:22:31;;;;;;;;;;;;;;;15.65;92.25;95097.00;5095074;28;1070;-52
2022/09/11 03:24:57;;;;;;;;;;;;;;;15.59;91.66;95095.91;5094894;28;980;-52
2022/09/11 03:27:23;;;;;;;;;;;;;;;15.61;92.23;95101.94;5095194;28;961;-52
2022/09/11 03:29:49;;;;;;;;;;;;;;;15.57;92.25;95100.66;5094913;28;1021;-52
2022/09/11 03:32:15;;;;;;;;;;;;;;;15.53;92.52;95099.38;5094742;28;1985;-52
2022/09/11 03:34:41;;;;;;;;;;;;;;;15.37;91.81;95097.78;5094884;28;1021;-52
2022/09/11 03:37:07;;;;;;;;;;;;;;;15.21;92.89;95094.31;5094842;28;1155;-52
2022/09/11 03:39:33;;;;;;;;;;;;;;;15.28;92.39;95096.25;5094691;28;1045;-52
2022/09/11 03:41:59;;;;;;;;;;;;;;;15.34;92.48;95107.06;5094595;28;1975;-52
2022/09/11 03:44:26;;;;;;;;;;;;;;;15.34;92.59;95100.84;5094822;28;1016;-52
2022/09/11 03:46:52;;;;;;;;;;;;;;;15.39;92.57;95098.44;5094468;28;1083;-51
2022/09/11 03:49:19;;;;;;;;;;;;;;;15.23;92.37;95094.09;5094536;28;1033;-49
2022/09/11 03:51:46;;;;;;;;;;;;;;;15.06;92.34;95096.19;5094407;28;1992;-49
2022/09/11 03:54:14;;;;;;;;;;;;;;;15.13;92.67;95093.59;5103388;28;1271;-50
2022/09/11 03:56:41;;;;;;;;;;;;;;;15.32;91.30;95092.97;5114933;28;1004;-50
2022/09/11 03:59:07;;;;;;;;;;;;;;;15.39;90.71;95103.81;5114947;28;1003;-51
2022/09/11 04:01:34;;;;;;;;;;;;;;;15.20;91.63;95111.50;5114151;28;1041;-50
2022/09/11 04:04:00;;;;;;;;;;;;;;;15.00;93.11;95103.19;5114830;28;1055;-50
2022/09/11 04:06:26;;;;;;;;;;;;;;;15.12;93.52;95103.53;5114474;28;1044;-50
2022/09/11 04:08:53;;;;;;;;;;;;;;;15.25;92.97;95104.69;5114502;28;1165;-50
2022/09/11 04:11:19;;;;;;;;;;;;;;;15.32;92.60;95108.28;5114418;28;1910;-51
2022/09/11 04:13:45;;;;;;;;;;;;;;;15.26;93.22;95111.75;5114696;28;1074;-51
2022/09/11 04:16:13;;;;;;;;;;;;;;;15.23;93.63;95113.81;5114403;28;941;-50
2022/09/11 04:18:39;;;;;;;;;;;;;;;15.09;93.89;95109.28;5114508;28;1053;-50
2022/09/11 04:21:06;;;;;;;;;;;;;;;15.05;93.03;95101.78;5114030;28;1100;-51
2022/09/11 04:23:33;;;;;;;;;;;;;;;14.98;94.32;95110.59;5114229;28;1021;-51
2022/09/11 04:25:59;;;;;;;;;;;;;;;15.29;92.98;95109.53;5114348;28;1025;-52
2022/09/11 04:28:29;;;;;;;;;;;;;;;15.47;92.63;95117.16;5114191;28;1032;-51
2022/09/11 04:31:00;;;;;;;;;;;;;;;15.60;91.63;95119.97;5113857;28;1207;-51
2022/09/11 04:33:26;;;;;;;;;;;;;;;15.57;91.82;95114.94;5114121;28;1906;-51
2022/09/11 04:35:52;;;;;;;;;;;;;;;15.48;92.17;95118.84;5114023;28;1025;-51
2022/09/11 04:38:18;;;;;;;;;;;;;;;15.33;92.37;95116.19;5114259;28;989;-51
2022/09/11 04:40:44;;;;;;;;;;;;;;;15.24;92.66;95114.63;5114255;28;1015;-51
2022/09/11 04:43:10;;;;;;;;;;;;;;;15.25;93.83;95120.84;5114065;28;1039;-51
2022/09/11 04:45:37;;;;;;;;;;;;;;;15.31;93.73;95120.94;5113948;28;1020;-51
2022/09/11 04:48:03;;;;;;;;;;;;;;;15.40;93.93;95124.31;5113825;28;1084;-51
2022/09/11 04:50:30;;;;;;;;;;;;;;;15.64;93.57;95128.50;5113836;28;1024;-51
2022/09/11 04:52:57;;;;;;;;;;;;;;;15.86;93.25;95125.81;5113723;28;1995;-51
2022/09/11 04:55:24;;;;;;;;;;;;;;;16.06;92.22;95126.00;5094683;28;1145;-50
2022/09/11 04:57:51;;;;;;;;;;;;;;;16.06;92.98;95129.50;5093341;28;1045;-51
2022/09/11 05:00:17;;;;;;;;;;;;;;;16.12;92.13;95131.41;5093347;28;1052;-51
2022/09/11 05:02:43;;;;;;;;;;;;;;;16.22;92.57;95120.31;5093347;28;1048;-51
2022/09/11 05:05:09;;;;;;;;;;;;;;;16.49;91.82;95121.31;5093369;28;966;-51
2022/09/11 05:07:35;;;;;;;;;;;;;;;16.63;91.49;95119.50;5093005;28;1909;-51
2022/09/11 05:10:01;;;;;;;;;;;;;;;16.77;92.18;95113.16;5093467;28;1021;-53
2022/09/11 05:12:30;;;;;;;;;;;;;;;16.72;92.68;95118.31;5093005;28;1910;-51
2022/09/11 05:14:57;;;;;;;;;;;;;;;17.02;91.35;95114.53;5096556;28;1044;-51
2022/09/11 05:17:22;;;;;;;;;;;;;;;17.24;90.62;95112.53;5097165;28;1100;-51
2022/09/11 05:19:48;;;;;;;;;;;;;;;17.41;90.13;95119.22;5097363;28;957;-51
2022/09/11 05:22:14;;;;;;;;;;;;;;;17.56;89.50;95122.56;5097134;28;1096;-51
2022/09/11 05:24:40;;;;;;;;;;;;;;;17.66;89.51;95126.75;5097483;28;1037;-51
2022/09/11 05:27:08;;;;;;;;;;;;;;;17.77;89.09;95123.44;5097210;28;966;-51
2022/09/11 05:29:34;;;;;;;;;;;;;;;17.69;88.29;95118.25;5097250;28;1024;-52
2022/09/11 05:32:02;;;;;;;;;;;;;;;17.65;89.36;95119.69;5096983;28;2008;-51
2022/09/11 05:34:28;;;;;;;;;;;;;;;17.81;88.46;95115.75;5096966;28;1024;-52
2022/09/11 05:36:56;;;;;;;;;;;;;;;17.97;88.42;95107.25;5097237;28;991;-51
2022/09/11 05:39:22;;;;;;;;;;;;;;;18.27;86.73;95117.66;5096957;28;968;-52
2022/09/11 05:41:49;;;;;;;;;;;;;;;18.30;87.45;95119.94;5096874;28;1025;-51
2022/09/11 05:44:16;;;;;;;;;;;;;;;18.29;87.97;95121.81;5096832;28;1049;-51
2022/09/11 05:46:42;;;;;;;;;;;;;;;18.28;87.92;95113.91;5096923;28;1040;-51
2022/09/11 05:49:08;;;;;;;;;;;;;;;18.34;88.47;95123.88;5096609;28;1111;-51
2022/09/11 05:51:36;;;;;;;;;;;;;;;18.56;87.34;95126.38;5096845;28;1997;-50
2022/09/11 05:54:02;;;;;;;;;;;;;;;18.54;87.11;95126.56;5104136;28;1179;-51
2022/09/11 05:56:29;;;;;;;;;;;;;;;18.48;86.48;95128.25;5117176;28;954;-51
2022/09/11 05:58:56;;;;;;;;;;;;;;;18.49;86.67;95126.38;5116941;28;972;-51
2022/09/11 06:01:23;;;;;;;;;;;;;;;18.54;86.29;95127.41;5116993;28;981;-51
2022/09/11 06:03:49;;;;;;;;;;;;;;;18.64;85.05;95123.41;5116709;28;1060;-51
2022/09/11 06:06:17;;;;;;;;;;;;;;;18.61;85.11;95124.69;5116836;28;1016;-51
2022/09/11 06:08:43;;;;;;;;;;;;;;;18.65;84.58;95115.09;5116630;28;1012;-51
2022/09/11 06:11:10;;;;;;;;;;;;;;;18.81;85.33;95118.41;5116948;28;1559;-51
2022/09/11 06:13:37;;;;;;;;;;;;;;;19.07;84.12;95117.50;5116584;28;1902;-51
2022/09/11 06:16:04;;;;;;;;;;;;;;;19.28;82.29;95116.34;5116797;28;1012;-51
2022/09/11 06:18:31;;;;;;;;;;;;;;;19.21;81.88;95119.06;5116246;28;996;-50
2022/09/11 06:20:58;;;;;;;;;;;;;;;19.33;82.75;95110.25;5116791;28;1047;-52
2022/09/11 06:23:24;;;;;;;;;;;;;;;19.58;81.59;95122.03;5116512;28;1036;-52
2022/09/11 06:25:53;;;;;;;;;;;;;;;20.28;78.00;95121.13;5116254;28;1016;-52
2022/09/11 06:28:22;;;;;;;;;;;;;;;20.64;75.82;95111.38;5116253;28;972;-52
2022/09/11 06:30:49;;;;;;;;;;;;;;;21.37;72.67;95110.53;5116341;28;1024;-52
2022/09/11 06:33:15;;;;;;;;;;;;;;;22.88;68.43;95114.88;5116268;28;1910;-50
2022/09/11 06:35:41;;;;;;;;;;;;;;;25.68;59.09;95116.31;5116336;28;1021;-50
2022/09/11 06:38:07;;;;;;;;;;;;;;;28.73;49.12;95125.97;5116299;28;1043;-51
2022/09/11 06:40:35;;;;;;;;;;;;;;;30.83;43.27;95127.78;5116364;28;961;-50
2022/09/11 06:43:01;;;;;;;;;;;;;;;32.46;39.73;95126.97;5116048;28;1092;-51
2022/09/11 06:45:29;;;;;;;;;;;;;;;33.36;37.55;95143.44;5116109;28;1012;-51
2022/09/11 06:47:55;;;;;;;;;;;;;;;33.99;36.52;95138.34;5116100;28;1592;-50
2022/09/11 06:50:22;;;;;;;;;;;;;;;34.94;34.93;95140.34;5115925;28;1079;-52
2022/09/11 06:52:50;;;;;;;;;;;;;;;35.22;34.30;95143.81;5115996;28;1992;-51
2022/09/11 06:55:17;;;;;;;;;;;;;;;34.69;33.74;95144.56;5097674;28;1202;-48
2022/09/11 06:57:43;;;;;;;;;;;;;;;34.75;34.27;95141.34;5095592;28;968;-48
2022/09/11 07:00:09;;;;;;;;;;;;;;;35.13;34.07;95134.56;5095172;28;1049;-49
2022/09/11 07:02:35;;;;;;;;;;;;;;;35.91;32.82;95140.53;5095340;28;1065;-50
2022/09/11 07:05:01;;;;;;;;;;;;;;;36.54;31.53;95137.53;5095377;28;962;-50
2022/09/11 07:07:27;;;;;;;;;;;;;;;36.73;30.77;95145.59;5095193;28;1207;-51
2022/09/11 07:09:53;;;;;;;;;;;;;;;36.34;31.58;95136.19;5095234;28;966;-50
2022/09/11 07:12:22;;;;;;;;;;;;;;;36.42;31.62;95135.38;5095084;28;1978;-51
2022/09/11 07:14:48;;;;;;;;;;;;;;;36.58;31.31;95137.66;5094923;28;1006;-49
2022/09/11 07:17:14;;;;;;;;;;;;;;;36.88;30.99;95144.25;5095273;28;1067;-49
2022/09/11 07:19:42;;;;;;;;;;;;;;;37.18;30.92;95138.81;5095124;28;1034;-50
2022/09/11 07:22:08;;;;;;;;;;;;;;;37.28;29.76;95146.81;5095463;28;1036;-50
2022/09/11 07:24:34;;;;;;;;;;;;;;;38.75;28.86;95154.81;5094789;28;1096;-48
2022/09/11 07:27:00;;;;;;;;;;;;;;;39.70;27.02;95155.03;5095118;28;1044;-51
2022/09/11 07:29:27;;;;;;;;;;;;;;;40.09;26.33;95161.13;5094783;28;1000;-55
2022/09/11 07:31:56;;;;;;;;;;;;;;;41.46;24.28;95171.66;5094967;28;1910;-54
2022/09/11 07:34:22;;;;;;;;;;;;;;;37.90;27.89;95149.06;5094939;28;985;-68
2022/09/11 07:36:50;;;;;;;;;;;;;;;35.27;31.88;95135.34;5076305;28;1123;-62
2022/09/11 07:39:16;;;;;;;;;;;;;;;35.35;32.18;95125.41;5094752;28;1056;-61
2022/09/11 07:41:42;;;;;;;;;;;;;;;35.95;30.18;95126.75;5094876;28;1851;-60
2022/09/11 07:44:08;;;;;;;;;;;;;;;35.35;30.28;95125.41;5094618;28;1020;-58
2022/09/11 07:46:34;;;;;;;;;;;;;;;36.46;29.81;95129.97;5094984;28;1057;-62
2022/09/11 07:49:01;;;;;;;;;;;;;;;37.60;28.05;95145.41;5094974;28;1037;-61
2022/09/11 07:51:28;;;;;;;;;;;;;;;37.96;28.58;95140.50;5094812;28;1905;-61
2022/09/11 07:53:56;;;;;;;;;;;;;;;37.58;29.00;95139.31;5101081;28;1383;-61
2022/09/11 07:56:23;;;;;;;;;;;;;;;37.21;29.21;95136.19;5114810;28;1037;-61
2022/09/11 07:58:51;;;;;;;;;;;;;;;36.59;30.24;95120.63;5115011;28;1011;-61
2022/09/11 08:01:20;;;;;;;;;;;;;;;37.09;29.64;95125.69;5114967;28;1009;-62
2022/09/11 08:03:48;;;;;;;;;;;;;;;38.44;27.75;95137.28;5114941;28;1159;-62
2022/09/11 08:06:16;;;;;;;;;;;;;;;39.99;25.89;95151.22;5114760;28;1083;-62
2022/09/11 08:08:42;;;;;;;;;;;;;;;41.59;24.40;95147.97;5114856;28;1008;-62
2022/09/11 08:11:10;;;;;;;;;;;;;;;42.78;22.93;95162.88;5114521;28;1140;-61
2022/09/11 08:13:36;;;;;;;;;;;;;;;43.01;22.84;95162.19;5114557;28;1909;-61
2022/09/11 08:16:02;;;;;;;;;;;;;;;43.23;22.20;95160.63;5114639;28;1008;-61
2022/09/11 08:18:29;;;;;;;;;;;;;;;43.46;21.01;95149.44;5114679;28;969;-61
2022/09/11 08:21:07;;;;;;;;;;;;;;;42.71;21.96;95149.50;5114373;28;1029;-61
2022/09/11 08:23:33;;;;;;;;;;;;;;;41.55;23.48;95147.88;5114475;28;968;-61
2022/09/11 08:26:07;;;;;;;;;;;;;;;39.30;26.01;95117.28;5114178;28;1052;-61
2022/09/11 08:28:33;;;;;;;;;;;;;;;36.00;29.91;95104.38;5114437;28;1033;-67
2022/09/11 08:31:00;;;;;;;;;;;;;;;33.43;33.18;95087.63;5114360;28;980;-61
2022/09/11 08:33:27;;;;;;;;;;;;;;;31.64;36.31;95075.53;5114249;28;1997;-61
2022/09/11 08:35:53;;;;;;;;;;;;;;;30.51;38.36;95059.38;5114079;28;1782;-61
2022/09/11 08:38:19;;;;;;;;;;;;;;;29.55;42.22;95051.44;5114128;28;968;-60
2022/09/11 08:40:45;;;;;;;;;;;;;;;28.94;42.75;95064.31;5114045;28;1061;-60
2022/09/11 08:43:38;;;;;;;;;;;;;;;28.38;44.81;95065.19;5114361;28;1056;-63
2022/09/11 08:46:08;;;;;;;;;;;;;;;27.75;46.55;95062.63;5110578;28;1831;-61
2022/09/11 08:48:39;;;;;;;;;;;;;;;27.72;46.33;95062.38;5114009;28;1012;-60
2022/09/11 08:51:05;;;;;;;;;;;;;;;27.48;47.07;95064.75;5113897;28;1049;-60
2022/09/11 08:53:32;;;;;;;;;;;;;;;27.19;46.04;95054.19;5110668;28;1909;-60
2022/09/11 09:01:28;;;;;;;;;;;;;;;26.19;49.88;95046.72;5131593;27;1243;-60
2022/09/11 09:03:55;;;;;;;;;;;;;;;26.35;49.92;95043.00;5131738;27;1880;-60
2022/09/11 09:06:24;;;;;;;;;;;;;;;26.53;49.32;95036.25;5131546;27;976;-61
2022/09/11 09:08:52;;;;;;;;;;;;;;;26.71;48.51;95032.28;5131707;27;1003;-61
2022/09/11 09:11:22;;;;;;;;;;;;;;;26.84;48.53;95031.81;5131333;28;1141;-61
2022/09/11 09:14:23;;;;;;;;;;;;;;;26.82;49.12;95027.69;5131488;27;992;-61
2022/09/11 09:16:54;;;;;;;;;;;;;;;26.82;49.10;95023.00;5067927;28;1181;-60
2022/09/11 09:19:28;;;;;;;;;;;;;;;26.77;48.15;95017.53;5120529;27;1902;-61
2022/09/11 09:22:00;;;;;;;;;;;;;;;26.53;46.82;95025.28;5131302;27;961;-61
2022/09/11 09:24:28;;;;;;;;;;;;;;;26.62;48.32;95014.69;5131047;28;1051;-61
2022/09/11 09:26:55;;;;;;;;;;;;;;;26.73;47.26;95010.06;5131264;27;968;-61
2022/09/11 09:29:22;;;;;;;;;;;;;;;26.66;47.80;95022.13;5131113;27;1024;-61
2022/09/11 09:32:00;;;;;;;;;;;;;;;26.76;46.61;95009.56;5130907;27;1099;-61
2022/09/11 09:34:30;;;;;;;;;;;;;;;26.85;47.86;95014.25;5131093;27;1087;-62
2022/09/11 09:37:05;;;;;;;;;;;;;;;26.77;47.36;95009.28;5130872;27;1048;-64
2022/09/11 09:39:31;;;;;;;;;;;;;;;26.79;47.36;95000.81;5130835;28;1988;-63
2022/09/11 09:41:57;;;;;;;;;;;;;;;26.77;49.06;95003.81;5131009;27;969;-63
2022/09/11 09:44:27;;;;;;;;;;;;;;;26.36;47.96;95005.44;5129775;28;1047;-63
2022/09/11 09:46:54;;;;;;;;;;;;;;;26.34;50.05;95002.97;5130789;27;962;-63
2022/09/11 09:49:26;;;;;;;;;;;;;;;26.31;50.51;95003.47;5130759;27;1318;-63
2022/09/11 09:51:55;;;;;;;;;;;;;;;26.66;48.94;94997.44;5130905;27;1067;-62
2022/09/11 09:54:25;;;;;;;;;;;;;;;26.77;48.67;94994.72;5130805;27;1177;-63
2022/09/11 09:57:03;;;;;;;;;;;;;;;26.92;49.50;94989.34;5130660;27;1068;-63
2022/09/11 09:59:32;;;;;;;;;;;;;;;26.97;48.23;94988.53;5130391;27;1984;-63
2022/09/11 10:01:57;;;;;;;;;;;;;;;26.98;47.75;94977.28;5130356;27;1268;-63
2022/09/11 10:04:25;;;;;;;;;;;;;;;27.12;47.26;94980.34;5129200;28;1293;-63
2022/09/11 10:06:54;;;;;;;;;;;;;;;27.29;48.03;94980.16;5130529;27;1114;-63
2022/09/11 10:09:25;;;;;;;;;;;;;;;27.20;46.79;94979.00;5130322;27;991;-63
2022/09/11 10:12:02;;;;;;;;;;;;;;;27.07;47.06;94972.94;5121185;27;1020;-64
2022/09/11 10:14:33;;;;;;;;;;;;;;;26.83;47.83;94977.22;5116552;28;1047;-63
2022/09/11 10:17:02;;;;;;;;;;;;;;;26.75;46.73;94972.25;5116502;28;1222;-63
2022/09/11 10:19:36;;;;;;;;;;;;;;;26.58;50.07;94973.25;5114458;28;1906;-63
2022/09/11 10:22:31;;;;;;;;;;;;;;;26.74;48.00;94965.94;5116529;27;1011;-65
2022/09/11 10:24:57;;;;;;;;;;;;;;;26.78;47.87;94958.00;5103364;28;1251;-63
2022/09/11 10:27:23;;;;;;;;;;;;;;;26.69;47.94;94957.69;5114946;28;1152;-65
2022/09/11 10:29:50;;;;;;;;;;;;;;;26.76;48.54;94962.94;5116314;28;1044;-64
2022/09/11 10:32:16;;;;;;;;;;;;;;;26.87;48.05;94954.47;5116222;28;972;-65
2022/09/11 10:34:43;;;;;;;;;;;;;;;26.93;48.66;94959.97;5116430;28;944;-66
2022/09/11 10:37:15;;;;;;;;;;;;;;;27.08;47.86;94955.38;5116500;28;972;-64
2022/09/11 10:39:42;;;;;;;;;;;;;;;27.17;47.44;94954.84;5116001;28;1906;-66
2022/09/11 10:42:17;;;;;;;;;;;;;;;27.12;47.26;94949.34;5115884;28;1067;-68
2022/09/11 10:44:44;;;;;;;;;;;;;;;27.10;47.96;94952.34;5116182;28;1023;-70
2022/09/11 10:47:13;;;;;;;;;;;;;;;26.97;48.83;94947.38;5115744;28;1067;-65
2022/09/11 10:49:39;;;;;;;;;;;;;;;26.98;47.87;94949.03;5116003;28;971;-64
2022/09/11 10:52:08;;;;;;;;;;;;;;;26.84;49.25;94941.31;5116208;28;1032;-64
2022/09/11 10:54:44;;;;;;;;;;;;;;;27.04;47.99;94943.28;5116228;28;1212;-64
2022/09/11 10:57:16;;;;;;;;;;;;;;;27.26;48.20;94945.00;5115804;28;1055;-64
2022/09/11 10:59:44;;;;;;;;;;;;;;;27.38;46.97;94942.03;5115738;27;1917;-64
2022/09/11 11:02:18;;;;;;;;;;;;;;;27.40;46.85;94937.91;5115512;28;1095;-63
2022/09/11 11:04:44;;;;;;;;;;;;;;;27.42;47.29;94932.16;5115626;28;1072;-64
2022/09/11 11:07:28;;;;;;;;;;;;;;;27.31;47.58;94931.31;5115786;28;1043;-64
2022/09/11 11:09:54;;;;;;;;;;;;;;;27.22;46.87;94927.41;5115797;28;988;-67
2022/09/11 11:12:30;;;;;;;;;;;;;;;27.04;45.13;94920.53;5114022;28;1056;-66
2022/09/11 11:14:59;;;;;;;;;;;;;;;27.03;46.76;94919.69;5115571;28;1043;-65
2022/09/11 11:17:31;;;;;;;;;;;;;;;27.02;46.93;94922.72;5115044;28;1036;-65
2022/09/11 11:19:57;;;;;;;;;;;;;;;26.98;46.17;94911.44;5115242;28;1992;-67
2022/09/11 11:22:38;;;;;;;;;;;;;;;26.91;46.44;94902.66;5113330;28;1095;-65
2022/09/11 11:25:20;;;;;;;;;;;;;;;27.03;46.70;94900.50;5115209;28;1057;-64
2022/09/11 11:27:50;;;;;;;;;;;;;;;27.17;46.10;94892.56;5115045;28;1050;-62
2022/09/11 11:30:20;;;;;;;;;;;;;;;27.30;46.79;94893.13;5114144;28;1071;-62
2022/09/11 11:33:04;;;;;;;;;;;;;;;27.36;47.60;94894.81;5115129;28;972;-62
2022/09/11 11:35:33;;;;;;;;;;;;;;;27.40;47.57;94884.94;5115094;28;973;-61
2022/09/11 11:38:09;;;;;;;;;;;;;;;27.25;47.31;94883.00;5113616;28;1016;-62
2022/09/11 11:40:45;;;;;;;;;;;;;;;27.23;45.66;94883.22;5115155;28;1914;-62
2022/09/11 11:43:12;;;;;;;;;;;;;;;27.24;46.02;94871.16;5114963;28;992;-69
2022/09/11 11:45:39;;;;;;;;;;;;;;;27.29;47.93;94866.81;5114894;28;1134;-64
2022/09/11 11:48:13;;;;;;;;;;;;;;;27.22;47.73;94869.78;5114641;28;1035;-63
2022/09/11 11:50:44;;;;;;;;;;;;;;;27.12;47.13;94867.03;5114805;28;978;-67
2022/09/11 11:56:41;;;;;;;;;;;;;;;26.65;47.22;94863.34;5114663;28;659;-66
2022/09/11 11:59:21;;;;;;;;;;;;;;;26.60;48.81;94858.69;5114216;28;1918;-67
2022/09/11 12:01:58;;;;;;;;;;;;;;;26.58;47.23;94857.25;5114861;28;1027;-67
2022/09/11 12:04:39;;;;;;;;;;;;;;;26.63;48.25;94866.34;5114513;27;1028;-66
2022/09/11 12:07:12;;;;;;;;;;;;;;;26.84;46.94;94864.53;5114596;28;972;-66
2022/09/11 12:09:44;;;;;;;;;;;;;;;27.06;47.50;94863.44;5114160;28;1036;-65
2022/09/11 12:12:10;;;;;;;;;;;;;;;27.13;47.76;94854.94;5114657;28;953;-66
2022/09/11 12:14:36;;;;;;;;;;;;;;;26.95;44.95;94850.81;5114060;28;1114;-66
2022/09/11 12:17:23;;;;;;;;;;;;;;;26.74;45.79;94848.03;5114446;28;1055;-66
2022/09/11 12:20:08;;;;;;;;;;;;;;;26.65;47.74;94842.25;5112894;28;1910;-66
2022/09/11 12:22:37;;;;;;;;;;;;;;;26.67;47.19;94839.22;5114302;28;1043;-66
2022/09/11 12:25:19;;;;;;;;;;;;;;;26.76;47.71;94842.28;5114129;28;1026;-66
2022/09/11 12:27:48;;;;;;;;;;;;;;;26.95;46.94;94839.84;5114236;28;965;-66
2022/09/11 12:30:17;;;;;;;;;;;;;;;27.00;47.34;94834.38;5114329;28;1051;-66
2022/09/11 12:32:47;;;;;;;;;;;;;;;27.17;47.26;94836.88;5113984;28;1115;-67
2022/09/11 12:35:42;;;;;;;;;;;;;;;27.29;47.24;94828.38;5113594;28;1107;-66
2022/09/11 12:38:13;;;;;;;;;;;;;;;27.39;46.76;94825.63;5100728;28;1313;-66
2022/09/11 12:40:42;;;;;;;;;;;;;;;27.37;46.97;94809.44;5114224;28;1909;-66
2022/09/11 12:43:25;;;;;;;;;;;;;;;27.38;48.01;94816.56;5113881;28;1034;-65
2022/09/11 12:45:51;;;;;;;;;;;;;;;27.21;48.09;94808.59;5113920;28;984;-66
2022/09/11 12:48:22;;;;;;;;;;;;;;;27.04;46.92;94806.09;5112687;28;972;-65
2022/09/11 12:50:53;;;;;;;;;;;;;;;26.89;48.18;94814.31;5113642;28;1032;-64
2022/09/11 12:53:22;;;;;;;;;;;;;;;26.86;48.30;94814.84;5113560;28;1212;-65
2022/09/11 12:55:51;;;;;;;;;;;;;;;26.83;46.76;94804.44;5113854;28;975;-65
2022/09/11 12:58:17;;;;;;;;;;;;;;;26.99;47.31;94811.56;5113829;28;1036;-66
2022/09/11 13:00:46;;;;;;;;;;;;;;;27.16;47.85;94797.59;5113293;28;1886;-65
2022/09/11 13:03:21;;;;;;;;;;;;;;;27.21;46.53;94800.34;5113830;28;976;-66
2022/09/11 13:05:58;;;;;;;;;;;;;;;27.20;45.01;94797.88;5113500;28;1024;-66
2022/09/11 13:08:28;;;;;;;;;;;;;;;27.21;46.23;94791.31;5113806;28;961;-66
2022/09/11 13:11:13;;;;;;;;;;;;;;;27.12;45.69;94790.22;5113648;28;1067;-66
2022/09/11 13:13:43;;;;;;;;;;;;;;;27.12;47.34;94785.53;5113497;28;1221;-66
2022/09/11 13:16:36;;;;;;;;;;;;;;;27.11;48.15;94789.41;5113403;28;1083;-66
2022/09/11 13:19:09;;;;;;;;;;;;;;;27.13;46.82;94789.09;5109686;28;1898;-67
2022/09/11 13:21:35;;;;;;;;;;;;;;;27.17;47.33;94777.31;5112344;28;964;-67